Time;durP1;ratioP1;P1;durP2;ratioP2;P2;SDS_P1;SDS_P2;PMS_P1;PMS_P2;Temp;Humidity;BMP_temperature;BMP_pressure;BME280_temperature;BME280_humidity;BME280_pressure;Samples;Min_cycle;Max_cycle;Signal;HPM_P1;HPM_P2
2023/09/11 00:01:56;;;;;;;25.02;20.42;;;;;;;;;;5057357;28;20207;-96
2023/09/11 00:04:23;;;;;;;29.00;20.55;;;;;;;;;;5057453;28;20192;-96
2023/09/11 00:06:52;;;;;;;25.30;19.77;;;;;;;;;;5057108;28;20231;-96
2023/09/11 00:09:20;;;;;;;25.02;19.95;;;;;;;;;;5056072;28;20211;-96
2023/09/11 00:11:48;;;;;;;27.80;20.52;;;;;;;;;;5057364;28;20196;-96
2023/09/11 00:14:15;;;;;;;23.23;19.08;;;;;;;;;;5057458;28;20714;-95
2023/09/11 00:16:44;;;;;;;26.08;19.65;;;;;;;;;;5056588;28;20196;-96
2023/09/11 00:19:12;;;;;;;25.58;20.13;;;;;;;;;;5056807;28;20200;-96
2023/09/11 00:21:43;;;;;;;24.20;20.33;;;;;;;;;;5058362;28;20203;-96
2023/09/11 00:24:13;;;;;;;24.55;19.58;;;;;;;;;;5061173;28;20283;-96
2023/09/11 00:26:46;;;;;;;27.52;20.60;;;;;;;;;;5061306;28;20242;-96
2023/09/11 00:29:14;;;;;;;25.98;19.88;;;;;;;;;;5060982;28;20685;-95
2023/09/11 00:31:43;;;;;;;27.83;19.80;;;;;;;;;;5061796;28;20563;-96
2023/09/11 00:34:13;;;;;;;25.00;20.35;;;;;;;;;;5060897;28;20609;-96
2023/09/11 00:36:48;;;;;;;26.02;19.95;;;;;;;;;;5063122;28;20680;-96
2023/09/11 00:39:18;;;;;;;23.83;19.92;;;;;;;;;;5077017;28;20209;-96
2023/09/11 00:41:46;;;;;;;22.45;19.17;;;;;;;;;;5059787;28;20192;-96
2023/09/11 00:44:15;;;;;;;25.95;19.98;;;;;;;;;;5058257;28;20192;-96
2023/09/11 00:46:43;;;;;;;23.92;20.27;;;;;;;;;;5057204;28;20227;-96
2023/09/11 00:49:12;;;;;;;27.10;20.58;;;;;;;;;;5057376;28;20241;-96
2023/09/11 00:51:42;;;;;;;27.65;20.63;;;;;;;;;;5058653;28;20210;-96
2023/09/11 00:54:09;;;;;;;24.20;19.92;;;;;;;;;;5061791;28;20203;-96
2023/09/11 00:56:41;;;;;;;27.02;21.13;;;;;;;;;;5058018;28;20187;-96
2023/09/11 00:59:08;;;;;;;26.55;20.15;;;;;;;;;;5058598;28;20295;-96
2023/09/11 01:01:38;;;;;;;25.02;20.42;;;;;;;;;;5057773;28;20200;-96
2023/09/11 01:04:06;;;;;;;25.65;21.52;;;;;;;;;;5055702;28;20202;-96
2023/09/11 01:06:34;;;;;;;26.75;21.02;;;;;;;;;;5056577;28;20227;-96
2023/09/11 01:09:11;;;;;;;26.30;21.38;;;;;;;;;;5060233;28;20192;-96
2023/09/11 01:11:45;;;;;;;22.92;19.08;;;;;;;;;;5063966;28;20725;-96
2023/09/11 01:14:13;;;;;;;23.75;19.83;;;;;;;;;;5066243;28;20203;-96
2023/09/11 01:16:45;;;;;;;27.38;20.52;;;;;;;;;;5082457;28;20259;-96
2023/09/11 01:19:18;;;;;;;29.38;20.73;;;;;;;;;;5060669;28;20216;-96
2023/09/11 01:24:45;;;;;;;29.08;21.77;;;;;;;;;;5069564;28;20207;-96
2023/09/11 01:27:25;;;;;;;28.23;21.15;;;;;;;;;;5063761;28;20233;-96
2023/09/11 01:29:55;;;;;;;29.92;20.77;;;;;;;;;;5062966;28;20237;-96
2023/09/11 01:32:32;;;;;;;28.25;20.52;;;;;;;;;;5064114;28;20203;-96
2023/09/11 01:35:00;;;;;;;24.15;20.15;;;;;;;;;;5062534;28;20207;-96
2023/09/11 01:37:31;;;;;;;25.50;21.08;;;;;;;;;;5061541;28;20196;-96
2023/09/11 01:40:00;;;;;;;27.13;20.02;;;;;;;;;;5065977;28;20199;-96
2023/09/11 01:42:34;;;;;;;26.13;19.67;;;;;;;;;;5066595;28;20230;-96
2023/09/11 01:45:08;;;;;;;26.63;19.92;;;;;;;;;;5062898;28;20277;-96
2023/09/11 01:47:36;;;;;;;22.95;18.13;;;;;;;;;;5060328;28;20227;-96
2023/09/11 01:50:04;;;;;;;27.80;19.27;;;;;;;;;;5061167;28;20236;-96
2023/09/11 01:52:33;;;;;;;25.92;19.40;;;;;;;;;;5060021;28;20196;-96
2023/09/11 01:55:00;;;;;;;22.35;17.63;;;;;;;;;;5059422;28;20246;-96
2023/09/11 01:57:28;;;;;;;23.00;17.90;;;;;;;;;;5059377;28;20196;-95
2023/09/11 01:59:55;;;;;;;25.90;18.10;;;;;;;;;;5061754;28;20568;-96
2023/09/11 02:02:39;;;;;;;23.42;18.05;;;;;;;;;;5061655;28;20203;-96
2023/09/11 02:05:07;;;;;;;20.98;16.98;;;;;;;;;;5068340;28;20208;-96
2023/09/11 02:07:41;;;;;;;20.92;16.58;;;;;;;;;;5065965;28;20251;-96
2023/09/11 02:10:12;;;;;;;20.02;16.55;;;;;;;;;;5066862;28;20649;-96
2023/09/11 02:12:41;;;;;;;20.52;17.40;;;;;;;;;;5067452;28;20208;-96
2023/09/11 02:15:13;;;;;;;20.20;16.60;;;;;;;;;;5072496;28;20259;-95
2023/09/11 02:20:26;;;;;;;21.83;15.75;;;;;;;;;;5068139;28;20660;-96
2023/09/11 02:22:57;;;;;;;21.73;16.33;;;;;;;;;;5068736;28;20200;-96
2023/09/11 02:25:30;;;;;;;18.58;14.95;;;;;;;;;;5067634;28;20204;-96
2023/09/11 02:28:02;;;;;;;19.33;15.50;;;;;;;;;;5067049;28;20231;-96
2023/09/11 02:30:30;;;;;;;20.33;15.10;;;;;;;;;;5066812;28;20200;-96
2023/09/11 02:33:17;;;;;;;18.45;14.82;;;;;;;;;;5067116;28;20214;-96
2023/09/11 02:35:53;;;;;;;16.92;14.35;;;;;;;;;;5071964;28;20271;-96
2023/09/11 02:38:20;;;;;;;18.33;14.68;;;;;;;;;;5066549;28;20191;-95
2023/09/11 02:40:48;;;;;;;21.67;15.07;;;;;;;;;;5072784;28;20203;-95
2023/09/11 02:43:16;;;;;;;20.90;13.75;;;;;;;;;;5070765;28;20200;-96
2023/09/11 02:45:47;;;;;;;19.45;14.38;;;;;;;;;;5062829;28;20206;-96
2023/09/11 02:48:15;;;;;;;18.15;15.20;;;;;;;;;;5063605;28;20211;-96
2023/09/11 02:53:34;;;;;;;22.73;15.60;;;;;;;;;;5066766;28;20199;-96
2023/09/11 02:56:02;;;;;;;17.67;13.82;;;;;;;;;;5062190;28;20195;-96
2023/09/11 02:58:30;;;;;;;18.65;14.52;;;;;;;;;;5062350;28;20183;-95
2023/09/11 03:01:03;;;;;;;19.35;14.57;;;;;;;;;;5061950;28;20196;-96
2023/09/11 03:09:24;;;;;;;16.65;14.18;;;;;;;;;;5063368;28;20210;-96
2023/09/11 03:11:52;;;;;;;16.95;13.90;;;;;;;;;;5064370;28;20204;-96
2023/09/11 03:14:22;;;;;;;17.80;14.18;;;;;;;;;;5065214;28;20203;-96
2023/09/11 03:19:40;;;;;;;18.58;14.73;;;;;;;;;;5065617;28;20234;-96
2023/09/11 03:22:14;;;;;;;19.83;15.45;;;;;;;;;;5068648;28;20204;-96
2023/09/11 03:24:43;;;;;;;20.00;14.02;;;;;;;;;;5068098;28;20192;-96
2023/09/11 03:27:11;;;;;;;16.67;14.63;;;;;;;;;;5064800;28;20262;-96
2023/09/11 03:29:38;;;;;;;17.85;14.15;;;;;;;;;;5066104;28;20203;-96
2023/09/11 03:37:40;;;;;;;18.75;14.13;;;;;;;;;;5067709;28;20203;-96
2023/09/11 03:40:32;;;;;;;17.63;14.77;;;;;;;;;;5065577;28;20225;-96
2023/09/11 03:43:16;;;;;;;23.10;15.05;;;;;;;;;;5063716;28;20224;-96
2023/09/11 03:49:00;;;;;;;16.50;13.00;;;;;;;;;;5065946;28;20199;-96
2023/09/11 03:51:30;;;;;;;17.55;13.30;;;;;;;;;;5064424;28;20198;-96
2023/09/11 03:54:00;;;;;;;17.95;13.98;;;;;;;;;;5065555;28;20582;-96
2023/09/11 03:56:30;;;;;;;15.80;13.73;;;;;;;;;;5064012;28;20259;-96
2023/09/11 03:59:07;;;;;;;15.35;13.50;;;;;;;;;;5064143;28;20283;-96
2023/09/11 04:01:58;;;;;;;16.58;14.15;;;;;;;;;;5066299;28;20726;-96
2023/09/11 04:04:32;;;;;;;19.25;13.98;;;;;;;;;;5060721;28;20180;-96
2023/09/11 04:07:00;;;;;;;17.50;13.60;;;;;;;;;;5059125;28;20281;-96
2023/09/11 04:09:47;;;;;;;15.38;13.68;;;;;;;;;;5064771;28;20207;-96
2023/09/11 04:15:10;;;;;;;16.85;12.77;;;;;;;;;;5069464;28;20273;-96
2023/09/11 04:17:57;;;;;;;16.25;13.35;;;;;;;;;;5078752;28;20249;-96
2023/09/11 04:20:47;;;;;;;17.88;13.10;;;;;;;;;;5104043;28;20194;-96
2023/09/11 04:23:30;;;;;;;20.63;15.18;;;;;;;;;;5104011;28;20194;-96
2023/09/11 04:26:00;;;;;;;19.67;15.13;;;;;;;;;;5104609;28;20187;-96
2023/09/11 04:28:39;;;;;;;18.00;14.07;;;;;;;;;;5103702;28;20226;-96
2023/09/11 04:31:08;;;;;;;19.02;15.05;;;;;;;;;;5102644;28;20196;-96
2023/09/11 04:33:46;;;;;;;22.13;16.17;;;;;;;;;;5103397;28;20198;-96
2023/09/11 04:36:15;;;;;;;24.77;16.48;;;;;;;;;;5099531;28;20230;-96
2023/09/11 04:38:52;;;;;;;25.45;17.88;;;;;;;;;;5102561;28;20205;-96
2023/09/11 04:50:44;;;;;;;30.08;20.42;;;;;;;;;;5106351;28;20241;-96
2023/09/11 04:53:14;;;;;;;31.83;21.42;;;;;;;;;;5102354;28;20229;-96
2023/09/11 05:09:18;;;;;;;40.38;22.60;;;;;;;;;;5030839;28;20556;-93
2023/09/11 05:11:45;;;;;;;32.80;21.90;;;;;;;;;;5030534;28;20287;-93
2023/09/11 05:14:22;;;;;;;31.47;21.40;;;;;;;;;;5030957;28;20204;-92
2023/09/11 05:16:49;;;;;;;34.28;22.10;;;;;;;;;;5030664;28;20228;-91
2023/09/11 05:19:16;;;;;;;35.42;23.67;;;;;;;;;;5030672;28;20287;-91
2023/09/11 05:21:44;;;;;;;34.22;21.95;;;;;;;;;;5030572;28;20212;-90
2023/09/11 05:24:11;;;;;;;35.03;20.77;;;;;;;;;;5030327;28;20258;-90
2023/09/11 05:26:40;;;;;;;33.53;21.55;;;;;;;;;;5022041;28;20198;-94
2023/09/11 05:29:07;;;;;;;31.70;21.25;;;;;;;;;;5020865;28;20213;-90
2023/09/11 05:31:35;;;;;;;34.75;24.00;;;;;;;;;;5029925;28;20243;-92
2023/09/11 05:34:02;;;;;;;35.10;22.30;;;;;;;;;;5029673;28;20217;-87
2023/09/11 05:36:29;;;;;;;31.02;20.75;;;;;;;;;;5026902;28;20203;-96
2023/09/11 05:38:57;;;;;;;33.33;20.92;;;;;;;;;;5013692;28;20259;-92
2023/09/11 05:41:25;;;;;;;35.55;21.95;;;;;;;;;;5005416;28;20201;-89
2023/09/11 05:43:54;;;;;;;32.58;21.38;;;;;;;;;;5021937;28;20213;-88
2023/09/11 05:46:21;;;;;;;34.53;22.35;;;;;;;;;;5003716;28;20204;-90
2023/09/11 05:48:49;;;;;;;34.90;21.48;;;;;;;;;;5028926;28;20627;-89
2023/09/11 05:51:16;;;;;;;33.65;21.30;;;;;;;;;;5029321;28;20199;-91
2023/09/11 05:53:44;;;;;;;35.47;21.60;;;;;;;;;;5029422;28;20227;-91
2023/09/11 05:56:11;;;;;;;35.30;21.15;;;;;;;;;;5029510;28;20226;-91
2023/09/11 05:58:38;;;;;;;33.53;21.17;;;;;;;;;;5029638;28;20312;-89
2023/09/11 06:01:07;;;;;;;37.30;21.35;;;;;;;;;;5029838;28;20280;-91
2023/09/11 06:03:34;;;;;;;36.35;22.75;;;;;;;;;;5029502;28;20287;-90
2023/09/11 06:06:02;;;;;;;35.25;21.45;;;;;;;;;;5029451;28;20228;-90
2023/09/11 06:08:29;;;;;;;36.90;22.38;;;;;;;;;;5025471;28;20719;-90
2023/09/11 06:10:56;;;;;;;38.85;22.08;;;;;;;;;;5015809;28;20245;-91
2023/09/11 06:13:23;;;;;;;37.63;21.80;;;;;;;;;;5016431;28;20247;-89
2023/09/11 06:15:51;;;;;;;34.70;21.85;;;;;;;;;;5016490;28;20634;-90
2023/09/11 06:18:19;;;;;;;31.85;20.50;;;;;;;;;;5015980;28;20268;-90
2023/09/11 06:20:46;;;;;;;33.90;20.42;;;;;;;;;;5015949;28;20280;-90
2023/09/11 06:23:14;;;;;;;34.83;21.30;;;;;;;;;;5015366;28;20280;-90
2023/09/11 06:25:41;;;;;;;34.47;21.60;;;;;;;;;;5016095;28;20308;-90
2023/09/11 06:28:08;;;;;;;34.33;21.25;;;;;;;;;;5015995;28;20220;-90
2023/09/11 06:30:35;;;;;;;28.33;19.33;;;;;;;;;;5016056;28;20194;-90
2023/09/11 06:33:03;;;;;;;31.08;20.80;;;;;;;;;;5015877;28;20240;-90
2023/09/11 06:35:31;;;;;;;33.92;20.05;;;;;;;;;;5016303;28;20207;-91
2023/09/11 06:37:59;;;;;;;30.05;19.90;;;;;;;;;;5015835;28;20676;-91
2023/09/11 06:40:26;;;;;;;32.55;20.58;;;;;;;;;;5016141;28;20217;-90
2023/09/11 06:42:53;;;;;;;31.35;20.23;;;;;;;;;;5015716;28;20292;-90
2023/09/11 06:45:20;;;;;;;29.90;19.23;;;;;;;;;;5015756;28;20205;-90
2023/09/11 06:47:47;;;;;;;30.70;19.77;;;;;;;;;;5016062;28;20189;-90
2023/09/11 06:50:15;;;;;;;28.50;18.98;;;;;;;;;;5015470;28;20284;-89
2023/09/11 06:52:44;;;;;;;26.17;17.42;;;;;;;;;;5014772;28;20267;-88
2023/09/11 06:55:12;;;;;;;28.58;18.35;;;;;;;;;;5014333;28;20204;-89
2023/09/11 06:57:42;;;;;;;27.33;18.05;;;;;;;;;;5014620;28;20263;-89
2023/09/11 07:00:11;;;;;;;28.60;17.92;;;;;;;;;;5014582;28;20202;-89
2023/09/11 07:02:39;;;;;;;24.52;17.50;;;;;;;;;;5014775;28;20201;-88
2023/09/11 07:05:06;;;;;;;24.73;16.70;;;;;;;;;;5014484;28;20559;-88
2023/09/11 07:07:34;;;;;;;24.45;17.20;;;;;;;;;;5014362;28;20737;-89
2023/09/11 07:10:03;;;;;;;28.52;17.58;;;;;;;;;;5014487;28;20224;-88
2023/09/11 07:12:30;;;;;;;30.08;17.83;;;;;;;;;;5013935;28;20771;-89
2023/09/11 07:14:58;;;;;;;27.15;17.92;;;;;;;;;;5014472;28;20282;-88
2023/09/11 07:17:25;;;;;;;27.05;17.48;;;;;;;;;;5014218;28;20247;-89
2023/09/11 07:19:52;;;;;;;27.63;18.52;;;;;;;;;;5013913;28;20240;-88
2023/09/11 07:22:19;;;;;;;26.90;18.45;;;;;;;;;;5013727;28;20208;-90
2023/09/11 07:24:46;;;;;;;25.38;17.98;;;;;;;;;;5014256;28;20228;-89
2023/09/11 07:27:15;;;;;;;24.95;17.45;;;;;;;;;;5014426;28;20255;-89
2023/09/11 07:29:43;;;;;;;24.30;16.73;;;;;;;;;;5014237;28;20630;-89
2023/09/11 07:32:10;;;;;;;21.40;16.67;;;;;;;;;;5014201;28;20223;-88
2023/09/11 07:34:37;;;;;;;22.67;15.52;;;;;;;;;;5014088;28;20232;-89
2023/09/11 07:37:05;;;;;;;22.25;15.77;;;;;;;;;;5013714;28;20664;-90
2023/09/11 07:39:32;;;;;;;26.52;16.85;;;;;;;;;;5014362;28;20312;-89
2023/09/11 07:42:00;;;;;;;24.60;15.98;;;;;;;;;;5014281;28;20660;-88
2023/09/11 07:44:28;;;;;;;23.27;16.08;;;;;;;;;;5013847;28;20304;-88
2023/09/11 07:46:56;;;;;;;21.75;15.73;;;;;;;;;;5013498;28;20292;-89
2023/09/11 07:49:23;;;;;;;24.10;16.58;;;;;;;;;;5014170;28;20213;-89
2023/09/11 07:51:51;;;;;;;22.55;16.58;;;;;;;;;;5013356;28;20287;-89
2023/09/11 07:54:18;;;;;;;22.77;16.02;;;;;;;;;;5013931;28;20205;-89
2023/09/11 07:56:45;;;;;;;22.52;15.40;;;;;;;;;;5013649;28;20637;-88
2023/09/11 07:59:12;;;;;;;22.35;16.48;;;;;;;;;;5013919;28;20288;-89
2023/09/11 08:01:41;;;;;;;22.55;15.65;;;;;;;;;;5013706;28;20653;-88
2023/09/11 08:04:08;;;;;;;21.55;14.93;;;;;;;;;;5013654;28;20251;-89
2023/09/11 08:06:35;;;;;;;23.60;14.88;;;;;;;;;;5013723;28;20204;-89
2023/09/11 08:09:04;;;;;;;23.90;15.90;;;;;;;;;;5013484;28;20233;-89
2023/09/11 08:11:31;;;;;;;23.15;14.75;;;;;;;;;;5007638;28;20657;-89
2023/09/11 08:13:59;;;;;;;21.02;14.55;;;;;;;;;;4993852;28;20255;-90
2023/09/11 08:16:26;;;;;;;20.90;14.45;;;;;;;;;;4993919;28;20224;-89
2023/09/11 08:18:55;;;;;;;19.75;14.90;;;;;;;;;;5011111;28;20228;-89
2023/09/11 08:21:22;;;;;;;20.85;14.65;;;;;;;;;;5013446;28;20284;-89
2023/09/11 08:23:49;;;;;;;23.30;16.88;;;;;;;;;;5013475;28;20232;-90
2023/09/11 08:26:17;;;;;;;20.85;15.40;;;;;;;;;;5013809;28;20235;-90
2023/09/11 08:28:44;;;;;;;20.83;15.40;;;;;;;;;;5013638;28;20208;-89
2023/09/11 08:31:11;;;;;;;26.98;18.38;;;;;;;;;;5013779;28;20288;-90
2023/09/11 08:33:39;;;;;;;26.30;16.58;;;;;;;;;;4995695;28;20211;-90
2023/09/11 08:36:09;;;;;;;19.67;13.73;;;;;;;;;;5013193;28;20247;-90
2023/09/11 08:38:36;;;;;;;22.35;15.13;;;;;;;;;;5013426;28;20304;-89
2023/09/11 08:41:04;;;;;;;20.60;15.13;;;;;;;;;;5013403;28;20471;-90
2023/09/11 08:43:32;;;;;;;19.38;14.20;;;;;;;;;;5013669;28;20629;-90
2023/09/11 08:45:59;;;;;;;20.17;13.98;;;;;;;;;;5013237;28;20197;-90
2023/09/11 08:48:29;;;;;;;18.08;13.93;;;;;;;;;;5012962;28;20284;-90
2023/09/11 08:50:58;;;;;;;18.90;13.55;;;;;;;;;;5013535;28;20203;-90
2023/09/11 08:53:27;;;;;;;19.48;13.60;;;;;;;;;;5013218;28;20236;-90
2023/09/11 08:55:55;;;;;;;18.27;14.32;;;;;;;;;;5013433;28;20240;-90
2023/09/11 08:58:23;;;;;;;18.38;13.90;;;;;;;;;;5013196;28;20806;-90
2023/09/11 09:00:50;;;;;;;19.17;13.55;;;;;;;;;;5013152;28;20225;-90
2023/09/11 09:03:18;;;;;;;19.42;13.20;;;;;;;;;;5012871;28;20269;-90
2023/09/11 09:05:45;;;;;;;17.05;12.57;;;;;;;;;;5011061;28;20610;-90
2023/09/11 09:08:14;;;;;;;18.38;12.57;;;;;;;;;;5012688;28;20249;-90
2023/09/11 09:10:44;;;;;;;18.05;12.68;;;;;;;;;;5013051;28;20232;-89
2023/09/11 09:13:11;;;;;;;19.55;13.43;;;;;;;;;;5012777;28;20292;-89
2023/09/11 09:15:40;;;;;;;16.70;12.80;;;;;;;;;;5012371;28;20243;-88
2023/09/11 09:18:08;;;;;;;16.40;12.43;;;;;;;;;;5011385;28;20216;-89
2023/09/11 09:20:35;;;;;;;16.13;12.38;;;;;;;;;;5011460;28;20620;-88
2023/09/11 09:23:03;;;;;;;17.05;12.68;;;;;;;;;;5011518;28;20243;-89
2023/09/11 09:25:31;;;;;;;17.58;11.85;;;;;;;;;;5010429;28;20750;-89
2023/09/11 09:28:00;;;;;;;18.35;12.45;;;;;;;;;;5011965;28;20197;-89
2023/09/11 09:30:28;;;;;;;17.27;13.23;;;;;;;;;;5001772;28;20276;-89
2023/09/11 09:32:56;;;;;;;18.05;12.98;;;;;;;;;;5012002;28;20292;-89
2023/09/11 09:35:24;;;;;;;16.60;12.23;;;;;;;;;;5011773;28;20284;-89
2023/09/11 09:37:52;;;;;;;16.70;12.40;;;;;;;;;;5012503;28;20216;-89
2023/09/11 09:40:33;;;;;;;16.90;12.30;;;;;;;;;;5010950;28;20397;-90
2023/09/11 09:43:03;;;;;;;15.63;12.25;;;;;;;;;;5010879;28;20579;-89
2023/09/11 09:45:33;;;;;;;18.10;12.50;;;;;;;;;;5004814;28;20201;-89
2023/09/11 09:48:10;;;;;;;17.33;12.35;;;;;;;;;;5015914;28;20201;-89
2023/09/11 09:50:47;;;;;;;16.25;11.98;;;;;;;;;;5016549;28;20227;-88
2023/09/11 09:53:21;;;;;;;16.38;12.27;;;;;;;;;;5013599;28;20316;-90
2023/09/11 09:55:48;;;;;;;15.70;12.90;;;;;;;;;;5016595;28;20627;-88
2023/09/11 09:58:19;;;;;;;16.92;12.77;;;;;;;;;;5015998;28;20221;-89
2023/09/11 10:00:46;;;;;;;17.40;12.45;;;;;;;;;;5015845;28;20300;-90
2023/09/11 10:03:14;;;;;;;16.13;11.55;;;;;;;;;;5015784;28;20280;-89
2023/09/11 10:05:41;;;;;;;16.55;12.52;;;;;;;;;;5015224;28;20284;-89
2023/09/11 10:08:09;;;;;;;15.35;11.75;;;;;;;;;;5015113;28;20734;-90
2023/09/11 10:10:36;;;;;;;16.10;12.60;;;;;;;;;;5014733;28;20280;-89
2023/09/11 10:13:06;;;;;;;17.98;13.07;;;;;;;;;;5015669;28;20208;-88
2023/09/11 10:15:36;;;;;;;14.82;11.25;;;;;;;;;;5015115;28;20320;-91
2023/09/11 10:18:04;;;;;;;15.43;11.90;;;;;;;;;;4999481;28;20198;-89
2023/09/11 10:20:31;;;;;;;16.13;12.32;;;;;;;;;;5014598;28;20229;-87
2023/09/11 10:22:59;;;;;;;15.65;11.73;;;;;;;;;;5014546;28;20198;-89
2023/09/11 10:25:28;;;;;;;14.38;10.95;;;;;;;;;;5015055;28;20217;-90
2023/09/11 10:27:58;;;;;;;13.45;10.30;;;;;;;;;;5014136;28;20582;-89
2023/09/11 10:30:27;;;;;;;14.93;11.57;;;;;;;;;;5011362;28;20205;-90
2023/09/11 10:32:59;;;;;;;15.98;10.55;;;;;;;;;;5015001;28;20189;-88
2023/09/11 10:35:27;;;;;;;13.85;11.13;;;;;;;;;;4999342;28;20280;-89
2023/09/11 10:37:56;;;;;;;13.63;10.68;;;;;;;;;;4997754;28;20212;-88
2023/09/11 10:40:24;;;;;;;14.50;11.50;;;;;;;;;;4995463;28;21414;-87
2023/09/11 10:42:51;;;;;;;14.05;10.73;;;;;;;;;;5002674;28;20280;-90
2023/09/11 10:45:28;;;;;;;13.65;11.25;;;;;;;;;;5015054;28;20197;-88
2023/09/11 10:47:55;;;;;;;15.07;11.10;;;;;;;;;;5000233;28;20291;-88
2023/09/11 10:50:26;;;;;;;14.15;10.18;;;;;;;;;;4995577;28;20672;-88
2023/09/11 10:52:57;;;;;;;13.88;10.02;;;;;;;;;;5014328;28;20200;-88
2023/09/11 10:55:25;;;;;;;13.60;10.38;;;;;;;;;;5014529;28;20201;-88
2023/09/11 10:57:53;;;;;;;12.43;9.77;;;;;;;;;;5015101;28;20292;-95
2023/09/11 11:00:22;;;;;;;12.07;8.88;;;;;;;;;;5016437;28;20263;-94
2023/09/11 11:02:50;;;;;;;10.60;8.30;;;;;;;;;;4999752;28;20201;-94
2023/09/11 11:05:18;;;;;;;12.05;8.80;;;;;;;;;;5016517;28;20276;-94
2023/09/11 11:07:48;;;;;;;10.23;8.23;;;;;;;;;;5017037;28;20758;-93
2023/09/11 11:10:17;;;;;;;10.25;7.32;;;;;;;;;;5010638;28;20222;-92
2023/09/11 11:12:44;;;;;;;8.25;6.50;;;;;;;;;;4996587;28;20206;-92
2023/09/11 11:15:29;;;;;;;8.45;7.10;;;;;;;;;;4996220;28;20285;-92
2023/09/11 11:18:06;;;;;;;10.90;7.60;;;;;;;;;;5005798;28;20295;-92
2023/09/11 11:20:34;;;;;;;9.95;7.72;;;;;;;;;;5015497;28;20295;-93
2023/09/11 11:23:16;;;;;;;8.57;7.68;;;;;;;;;;5015764;28;20205;-92
2023/09/11 11:25:48;;;;;;;11.32;8.02;;;;;;;;;;5016509;28;20291;-93
2023/09/11 11:28:17;;;;;;;9.27;6.85;;;;;;;;;;5017184;28;20244;-93
2023/09/11 11:30:45;;;;;;;8.23;7.40;;;;;;;;;;5018150;28;20193;-93
2023/09/11 11:33:15;;;;;;;10.48;7.80;;;;;;;;;;5017608;28;20193;-93
2023/09/11 11:35:45;;;;;;;11.93;7.60;;;;;;;;;;5017078;28;20671;-93
2023/09/11 11:38:15;;;;;;;8.48;7.22;;;;;;;;;;5017735;28;20201;-93
2023/09/11 11:40:43;;;;;;;15.95;7.20;;;;;;;;;;5016759;28;20260;-93
2023/09/11 11:43:12;;;;;;;9.90;7.55;;;;;;;;;;5016501;28;20645;-95
2023/09/11 11:45:43;;;;;;;8.23;6.65;;;;;;;;;;5017714;28;20233;-94
2023/09/11 11:48:11;;;;;;;8.43;6.32;;;;;;;;;;5017203;28;20223;-93
2023/09/11 11:50:41;;;;;;;9.60;7.03;;;;;;;;;;5018972;28;20232;-94
2023/09/11 11:53:09;;;;;;;9.80;7.30;;;;;;;;;;5017719;28;20279;-93
2023/09/11 11:55:36;;;;;;;10.95;7.78;;;;;;;;;;5017623;28;20232;-92
2023/09/11 11:58:08;;;;;;;7.45;6.15;;;;;;;;;;5017993;28;20700;-93
2023/09/11 12:00:37;;;;;;;8.15;7.32;;;;;;;;;;5017633;28;20819;-93
2023/09/11 12:03:05;;;;;;;7.95;6.85;;;;;;;;;;5018006;28;20355;-94
2023/09/11 12:05:32;;;;;;;9.02;7.07;;;;;;;;;;5017341;28;20255;-93
2023/09/11 12:08:00;;;;;;;8.00;7.20;;;;;;;;;;5016742;28;20263;-93
2023/09/11 12:10:28;;;;;;;7.63;6.80;;;;;;;;;;5018334;28;20194;-93
2023/09/11 12:12:55;;;;;;;7.07;6.25;;;;;;;;;;5016099;28;20263;-92
2023/09/11 12:15:22;;;;;;;7.20;6.43;;;;;;;;;;5016641;28;20232;-93
2023/09/11 12:17:51;;;;;;;6.90;6.20;;;;;;;;;;5014818;28;20209;-92
2023/09/11 12:20:19;;;;;;;7.93;6.82;;;;;;;;;;5016164;28;20232;-93
2023/09/11 12:22:47;;;;;;;8.15;6.65;;;;;;;;;;5014005;28;20650;-92
2023/09/11 12:25:15;;;;;;;7.40;6.70;;;;;;;;;;5014240;28;20220;-91
2023/09/11 12:27:43;;;;;;;7.88;5.97;;;;;;;;;;5013825;28;20724;-93
2023/09/11 12:30:11;;;;;;;7.55;6.75;;;;;;;;;;5014293;28;20197;-92
2023/09/11 12:32:38;;;;;;;7.03;6.28;;;;;;;;;;5014112;28;20227;-92
2023/09/11 12:35:08;;;;;;;7.93;6.45;;;;;;;;;;5013671;28;20189;-92
2023/09/11 12:37:35;;;;;;;6.88;5.78;;;;;;;;;;5014161;28;20255;-92
2023/09/11 12:40:08;;;;;;;10.48;7.57;;;;;;;;;;5013578;28;20253;-91
2023/09/11 12:42:36;;;;;;;8.40;7.60;;;;;;;;;;5013622;28;20189;-92
2023/09/11 12:45:03;;;;;;;8.00;7.13;;;;;;;;;;5013057;28;20287;-93
2023/09/11 12:47:31;;;;;;;7.10;6.40;;;;;;;;;;5014253;28;20196;-92
2023/09/11 12:49:58;;;;;;;6.53;5.93;;;;;;;;;;5015202;28;20233;-92
2023/09/11 12:52:27;;;;;;;7.07;6.13;;;;;;;;;;5014233;28;20297;-92
2023/09/11 12:54:54;;;;;;;8.18;6.85;;;;;;;;;;5013916;28;20193;-92
2023/09/11 12:57:21;;;;;;;8.18;6.60;;;;;;;;;;5013973;28;20640;-92
2023/09/11 12:59:49;;;;;;;6.93;6.22;;;;;;;;;;5013729;28;20259;-93
2023/09/11 13:02:16;;;;;;;6.00;5.10;;;;;;;;;;5013613;28;20288;-92
2023/09/11 13:04:43;;;;;;;7.90;6.68;;;;;;;;;;5013847;28;20228;-91
2023/09/11 13:07:11;;;;;;;8.05;7.00;;;;;;;;;;5014461;28;20721;-93
2023/09/11 13:09:39;;;;;;;8.07;5.78;;;;;;;;;;5013045;28;20243;-92
2023/09/11 13:12:06;;;;;;;8.05;6.32;;;;;;;;;;5013795;28;20283;-92
2023/09/11 13:14:34;;;;;;;7.68;6.35;;;;;;;;;;5013599;28;20193;-92
2023/09/11 13:17:03;;;;;;;7.47;6.78;;;;;;;;;;5011425;28;20802;-92
2023/09/11 13:19:31;;;;;;;6.70;5.80;;;;;;;;;;4995563;28;20228;-92
2023/09/11 13:21:58;;;;;;;10.13;8.02;;;;;;;;;;4997628;28;20194;-91
2023/09/11 13:24:25;;;;;;;7.93;6.90;;;;;;;;;;5002937;28;20292;-92
2023/09/11 13:26:54;;;;;;;8.95;6.90;;;;;;;;;;5017386;28;20580;-92
2023/09/11 13:29:21;;;;;;;9.07;6.30;;;;;;;;;;5017265;28;20247;-92
2023/09/11 13:31:48;;;;;;;8.65;7.10;;;;;;;;;;5017403;28;20251;-92
2023/09/11 13:34:16;;;;;;;8.43;6.55;;;;;;;;;;5016991;28;20189;-92
2023/09/11 13:36:44;;;;;;;9.50;6.43;;;;;;;;;;5017392;28;20233;-93
2023/09/11 13:39:12;;;;;;;8.73;7.18;;;;;;;;;;5017187;28;20293;-93
2023/09/11 13:41:39;;;;;;;7.80;7.10;;;;;;;;;;5017656;28;20189;-92
2023/09/11 13:44:11;;;;;;;8.40;7.10;;;;;;;;;;5017067;28;20228;-94
2023/09/11 13:46:38;;;;;;;11.15;6.97;;;;;;;;;;5016924;28;20200;-93
2023/09/11 13:49:06;;;;;;;6.43;5.82;;;;;;;;;;5016404;28;20751;-86
2023/09/11 13:51:33;;;;;;;6.13;5.55;;;;;;;;;;5015762;28;20284;-90
2023/09/11 13:54:00;;;;;;;6.95;6.10;;;;;;;;;;5016143;28;20730;-91
2023/09/11 13:56:28;;;;;;;9.18;7.15;;;;;;;;;;5016804;28;20229;-90
2023/09/11 13:58:55;;;;;;;8.02;6.13;;;;;;;;;;5016410;28;20225;-90
2023/09/11 14:01:23;;;;;;;6.38;5.78;;;;;;;;;;5016176;28;20319;-91
2023/09/11 14:03:51;;;;;;;7.10;6.38;;;;;;;;;;5016294;28;20236;-90
2023/09/11 14:06:18;;;;;;;7.22;6.53;;;;;;;;;;5016028;28;20205;-90
2023/09/11 14:08:45;;;;;;;8.15;6.60;;;;;;;;;;5016168;28;20264;-90
2023/09/11 14:11:12;;;;;;;9.27;6.53;;;;;;;;;;5016229;28;20782;-90
2023/09/11 14:13:40;;;;;;;6.90;6.20;;;;;;;;;;5014488;28;20678;-92
2023/09/11 14:16:07;;;;;;;7.40;6.28;;;;;;;;;;5014449;28;20668;-91
2023/09/11 14:18:36;;;;;;;7.65;6.53;;;;;;;;;;4998836;28;20679;-91
2023/09/11 14:21:03;;;;;;;6.57;5.93;;;;;;;;;;5016117;28;20307;-91
2023/09/11 14:23:31;;;;;;;8.68;6.93;;;;;;;;;;5015985;28;20320;-91
2023/09/11 14:25:58;;;;;;;7.63;6.88;;;;;;;;;;5015961;28;20284;-91
2023/09/11 14:28:25;;;;;;;8.15;7.03;;;;;;;;;;5016891;28;20212;-90
2023/09/11 14:30:53;;;;;;;9.27;6.38;;;;;;;;;;5015844;28;20225;-90
2023/09/11 14:33:20;;;;;;;10.45;6.53;;;;;;;;;;5016166;28;20199;-90
2023/09/11 14:35:49;;;;;;;7.80;7.00;;;;;;;;;;5013797;28;20239;-92
2023/09/11 14:38:16;;;;;;;8.50;7.70;;;;;;;;;;5014995;28;20292;-88
2023/09/11 14:40:43;;;;;;;7.05;6.25;;;;;;;;;;5006014;28;20225;-84
2023/09/11 14:43:11;;;;;;;8.60;7.70;;;;;;;;;;4994063;28;20209;-84
2023/09/11 14:45:38;;;;;;;7.70;6.90;;;;;;;;;;5007102;28;20690;-84
2023/09/11 14:48:06;;;;;;;12.38;7.05;;;;;;;;;;5013382;28;20239;-82
2023/09/11 14:50:33;;;;;;;8.30;6.82;;;;;;;;;;5012285;28;20236;-84
2023/09/11 14:53:02;;;;;;;9.90;6.80;;;;;;;;;;5012863;28;20880;-84
2023/09/11 14:55:30;;;;;;;7.50;6.68;;;;;;;;;;5013168;28;20206;-83
2023/09/11 14:57:57;;;;;;;7.72;6.93;;;;;;;;;;5012591;28;20217;-84
2023/09/11 15:00:24;;;;;;;10.05;7.38;;;;;;;;;;5013443;28;20259;-82
2023/09/11 15:02:51;;;;;;;9.70;7.57;;;;;;;;;;5027486;28;20291;-83
2023/09/11 15:05:18;;;;;;;10.95;8.02;;;;;;;;;;5012963;28;20656;-84
2023/09/11 15:07:46;;;;;;;7.25;6.55;;;;;;;;;;5013341;28;20260;-83
2023/09/11 15:10:17;;;;;;;8.23;7.05;;;;;;;;;;5013719;28;20233;-82
2023/09/11 15:12:44;;;;;;;9.85;7.63;;;;;;;;;;5013726;28;20296;-82
2023/09/11 15:15:12;;;;;;;10.52;8.00;;;;;;;;;;5013385;28;20361;-84
2023/09/11 15:17:39;;;;;;;10.55;7.43;;;;;;;;;;5013207;28;20284;-83
2023/09/11 15:20:06;;;;;;;8.85;6.85;;;;;;;;;;5013074;28;20264;-83
2023/09/11 15:22:34;;;;;;;8.93;6.63;;;;;;;;;;5013256;28;20291;-84
2023/09/11 15:25:01;;;;;;;10.15;7.68;;;;;;;;;;5013020;28;20220;-84
2023/09/11 15:27:29;;;;;;;9.23;7.45;;;;;;;;;;5012865;28;20205;-83